sensor_id;sensor_type;location;lat;lon;timestamp;pressure;altitude;pressure_sealevel;temperature;humidity
58668;BME280;59852;43.086;25.634;2022-11-23T00:00:54;97680.59;;;11.34;66.59
58668;BME280;59852;43.086;25.634;2022-11-23T00:03:19;97678.13;;;11.23;66.73
58668;BME280;59852;43.086;25.634;2022-11-23T00:05:44;97679.91;;;11.23;67.80
58668;BME280;59852;43.086;25.634;2022-11-23T00:08:10;97667.06;;;11.29;66.89
58668;BME280;59852;43.086;25.634;2022-11-23T00:10:35;97667.38;;;11.26;67.17
58668;BME280;59852;43.086;25.634;2022-11-23T00:13:00;97670.94;;;11.25;67.94
58668;BME280;59852;43.086;25.634;2022-11-23T00:15:26;97669.97;;;11.26;67.76
58668;BME280;59852;43.086;25.634;2022-11-23T00:17:51;97659.38;;;11.18;67.76
58668;BME280;59852;43.086;25.634;2022-11-23T00:20:16;97665.41;;;11.28;67.23
58668;BME280;59852;43.086;25.634;2022-11-23T00:22:42;97661.56;;;11.32;66.63
58668;BME280;59852;43.086;25.634;2022-11-23T00:25:07;97665.16;;;11.31;67.39
58668;BME280;59852;43.086;25.634;2022-11-23T00:27:33;97659.38;;;11.28;67.86
58668;BME280;59852;43.086;25.634;2022-11-23T00:29:58;97661.44;;;11.24;68.03
58668;BME280;59852;43.086;25.634;2022-11-23T00:32:23;97647.53;;;11.24;67.94
58668;BME280;59852;43.086;25.634;2022-11-23T00:34:49;97631.25;;;11.20;67.79
58668;BME280;59852;43.086;25.634;2022-11-23T00:37:14;97626.00;;;11.30;67.75
58668;BME280;59852;43.086;25.634;2022-11-23T00:39:39;97610.19;;;11.31;67.28
58668;BME280;59852;43.086;25.634;2022-11-23T00:42:04;97606.22;;;11.17;68.62
58668;BME280;59852;43.086;25.634;2022-11-23T00:44:30;97584.00;;;11.41;67.31
58668;BME280;59852;43.086;25.634;2022-11-23T00:46:55;97581.38;;;11.41;67.22
58668;BME280;59852;43.086;25.634;2022-11-23T00:49:20;97585.91;;;11.39;67.63
58668;BME280;59852;43.086;25.634;2022-11-23T00:51:46;97593.66;;;11.31;68.17
58668;BME280;59852;43.086;25.634;2022-11-23T00:54:11;97580.84;;;11.28;68.37
58668;BME280;59852;43.086;25.634;2022-11-23T00:56:37;97598.84;;;11.40;67.79
58668;BME280;59852;43.086;25.634;2022-11-23T00:59:02;97582.03;;;11.43;67.45
58668;BME280;59852;43.086;25.634;2022-11-23T01:01:29;97583.84;;;11.42;67.78
58668;BME280;59852;43.086;25.634;2022-11-23T01:03:58;97587.44;;;11.41;67.91
58668;BME280;59852;43.086;25.634;2022-11-23T01:06:25;97584.00;;;11.41;68.13
58668;BME280;59852;43.086;25.634;2022-11-23T01:08:52;97583.28;;;11.39;68.54
58668;BME280;59852;43.086;25.634;2022-11-23T01:11:17;97579.69;;;11.40;68.17
58668;BME280;59852;43.086;25.634;2022-11-23T01:13:43;97584.09;;;11.39;68.24
58668;BME280;59852;43.086;25.634;2022-11-23T01:16:12;97585.75;;;11.40;68.23
58668;BME280;59852;43.086;25.634;2022-11-23T01:18:38;97579.28;;;11.44;68.10
58668;BME280;59852;43.086;25.634;2022-11-23T01:21:03;97579.56;;;11.41;68.46
58668;BME280;59852;43.086;25.634;2022-11-23T01:23:28;97577.06;;;11.40;68.92
58668;BME280;59852;43.086;25.634;2022-11-23T01:25:54;97589.34;;;11.39;68.58
58668;BME280;59852;43.086;25.634;2022-11-23T01:28:20;97591.56;;;11.34;68.99
58668;BME280;59852;43.086;25.634;2022-11-23T01:30:45;97600.63;;;11.40;69.31
58668;BME280;59852;43.086;25.634;2022-11-23T01:33:10;97596.78;;;11.44;69.61
58668;BME280;59852;43.086;25.634;2022-11-23T01:35:36;97580.50;;;11.40;69.68
58668;BME280;59852;43.086;25.634;2022-11-23T01:38:01;97587.00;;;11.36;70.24
58668;BME280;59852;43.086;25.634;2022-11-23T01:40:26;97582.47;;;11.38;70.06
58668;BME280;59852;43.086;25.634;2022-11-23T01:42:59;97557.81;;;11.41;70.42
58668;BME280;59852;43.086;25.634;2022-11-23T01:47:53;97547.06;;;11.34;70.35
58668;BME280;59852;43.086;25.634;2022-11-23T01:50:18;97544.75;;;11.31;70.88
58668;BME280;59852;43.086;25.634;2022-11-23T01:52:44;97543.94;;;11.31;71.01
58668;BME280;59852;43.086;25.634;2022-11-23T01:55:09;97544.44;;;11.34;71.27
58668;BME280;59852;43.086;25.634;2022-11-23T01:57:36;97533.34;;;11.23;71.51
58668;BME280;59852;43.086;25.634;2022-11-23T02:00:03;97527.50;;;11.29;71.19
58668;BME280;59852;43.086;25.634;2022-11-23T02:02:29;97516.06;;;11.30;71.49
58668;BME280;59852;43.086;25.634;2022-11-23T02:04:55;97513.06;;;11.25;71.41
58668;BME280;59852;43.086;25.634;2022-11-23T02:07:23;97496.56;;;11.24;71.43
58668;BME280;59852;43.086;25.634;2022-11-23T02:09:49;97500.13;;;11.23;71.61
58668;BME280;59852;43.086;25.634;2022-11-23T02:12:14;97482.91;;;11.20;72.32
58668;BME280;59852;43.086;25.634;2022-11-23T02:14:40;97481.56;;;11.16;72.62
58668;BME280;59852;43.086;25.634;2022-11-23T02:17:06;97487.09;;;11.13;72.49
58668;BME280;59852;43.086;25.634;2022-11-23T02:19:40;97492.69;;;11.18;72.27
58668;BME280;59852;43.086;25.634;2022-11-23T02:22:14;97497.41;;;11.15;72.11
58668;BME280;59852;43.086;25.634;2022-11-23T02:24:45;97508.84;;;11.14;71.41
58668;BME280;59852;43.086;25.634;2022-11-23T02:27:13;97522.78;;;11.05;72.28
58668;BME280;59852;43.086;25.634;2022-11-23T02:29:38;97508.59;;;11.07;72.33
58668;BME280;59852;43.086;25.634;2022-11-23T02:32:04;97510.09;;;11.10;71.98
58668;BME280;59852;43.086;25.634;2022-11-23T02:34:29;97516.09;;;11.20;71.58
58668;BME280;59852;43.086;25.634;2022-11-23T02:36:55;97514.59;;;11.17;72.00
58668;BME280;59852;43.086;25.634;2022-11-23T02:41:52;97519.31;;;11.14;73.23
58668;BME280;59852;43.086;25.634;2022-11-23T02:44:27;97529.25;;;11.01;73.64
58668;BME280;59852;43.086;25.634;2022-11-23T02:46:54;97519.06;;;11.07;73.45
58668;BME280;59852;43.086;25.634;2022-11-23T02:49:19;97508.44;;;11.09;73.78
58668;BME280;59852;43.086;25.634;2022-11-23T02:51:45;97514.00;;;10.96;75.36
58668;BME280;59852;43.086;25.634;2022-11-23T02:54:10;97517.69;;;11.03;75.87
58668;BME280;59852;43.086;25.634;2022-11-23T02:56:35;97512.03;;;11.08;74.97
58668;BME280;59852;43.086;25.634;2022-11-23T02:59:01;97522.19;;;11.11;74.99
58668;BME280;59852;43.086;25.634;2022-11-23T03:01:26;97516.84;;;11.12;75.16
58668;BME280;59852;43.086;25.634;2022-11-23T03:03:52;97509.81;;;11.13;75.81
58668;BME280;59852;43.086;25.634;2022-11-23T03:06:18;97512.28;;;11.14;75.58
58668;BME280;59852;43.086;25.634;2022-11-23T03:08:43;97509.81;;;11.13;75.97
58668;BME280;59852;43.086;25.634;2022-11-23T03:11:08;97506.50;;;11.11;75.87
58668;BME280;59852;43.086;25.634;2022-11-23T03:13:34;97515.59;;;11.07;75.70
58668;BME280;59852;43.086;25.634;2022-11-23T03:15:59;97510.25;;;10.99;75.30
58668;BME280;59852;43.086;25.634;2022-11-23T03:18:24;97516.56;;;11.06;74.96
58668;BME280;59852;43.086;25.634;2022-11-23T03:20:50;97529.16;;;10.83;74.81
58668;BME280;59852;43.086;25.634;2022-11-23T03:23:15;97516.91;;;10.83;75.10
58668;BME280;59852;43.086;25.634;2022-11-23T03:25:41;97519.13;;;10.78;75.08
58668;BME280;59852;43.086;25.634;2022-11-23T03:28:06;97512.19;;;10.97;75.33
58668;BME280;59852;43.086;25.634;2022-11-23T03:30:31;97500.03;;;11.15;75.82
58668;BME280;59852;43.086;25.634;2022-11-23T03:32:57;97496.69;;;11.23;75.59
58668;BME280;59852;43.086;25.634;2022-11-23T03:35:22;97495.84;;;11.32;75.12
58668;BME280;59852;43.086;25.634;2022-11-23T03:37:47;97504.88;;;11.37;75.14
58668;BME280;59852;43.086;25.634;2022-11-23T03:40:13;97512.69;;;11.47;74.52
58668;BME280;59852;43.086;25.634;2022-11-23T03:42:38;97497.28;;;11.44;75.38
58668;BME280;59852;43.086;25.634;2022-11-23T03:45:04;97507.50;;;11.37;76.38
58668;BME280;59852;43.086;25.634;2022-11-23T03:47:29;97501.75;;;11.34;77.18
58668;BME280;59852;43.086;25.634;2022-11-23T03:49:55;97494.09;;;11.23;78.01
58668;BME280;59852;43.086;25.634;2022-11-23T03:52:20;97483.16;;;11.27;77.85
58668;BME280;59852;43.086;25.634;2022-11-23T03:54:45;97484.00;;;11.28;78.07
58668;BME280;59852;43.086;25.634;2022-11-23T03:57:11;97487.19;;;11.22;77.53
58668;BME280;59852;43.086;25.634;2022-11-23T03:59:36;97493.09;;;11.24;77.96
58668;BME280;59852;43.086;25.634;2022-11-23T04:02:02;97493.94;;;11.24;78.19
58668;BME280;59852;43.086;25.634;2022-11-23T04:04:27;97491.63;;;11.21;78.85
58668;BME280;59852;43.086;25.634;2022-11-23T04:06:52;97481.38;;;11.28;78.12
58668;BME280;59852;43.086;25.634;2022-11-23T04:09:18;97485.53;;;11.20;78.87
58668;BME280;59852;43.086;25.634;2022-11-23T04:11:43;97481.41;;;11.18;78.76
58668;BME280;59852;43.086;25.634;2022-11-23T04:14:09;97480.44;;;11.19;79.18
58668;BME280;59852;43.086;25.634;2022-11-23T04:16:34;97487.75;;;11.15;78.62
58668;BME280;59852;43.086;25.634;2022-11-23T04:18:59;97488.59;;;11.16;78.59
58668;BME280;59852;43.086;25.634;2022-11-23T04:21:24;97483.34;;;11.16;79.45
58668;BME280;59852;43.086;25.634;2022-11-23T04:23:50;97485.44;;;11.12;79.04
58668;BME280;59852;43.086;25.634;2022-11-23T04:26:15;97493.31;;;11.03;79.17
58668;BME280;59852;43.086;25.634;2022-11-23T04:28:40;97486.00;;;11.06;79.35
58668;BME280;59852;43.086;25.634;2022-11-23T04:31:06;97482.28;;;11.09;79.54
58668;BME280;59852;43.086;25.634;2022-11-23T04:33:31;97479.09;;;11.15;79.70
58668;BME280;59852;43.086;25.634;2022-11-23T04:35:56;97474.53;;;11.17;79.46
58668;BME280;59852;43.086;25.634;2022-11-23T04:38:22;97480.31;;;11.11;79.89
58668;BME280;59852;43.086;25.634;2022-11-23T04:40:47;97473.44;;;11.10;80.13
58668;BME280;59852;43.086;25.634;2022-11-23T04:43:13;97475.94;;;11.11;80.50
58668;BME280;59852;43.086;25.634;2022-11-23T04:45:38;97479.25;;;11.13;80.46
58668;BME280;59852;43.086;25.634;2022-11-23T04:48:04;97468.09;;;11.11;80.52
58668;BME280;59852;43.086;25.634;2022-11-23T04:50:29;97464.22;;;11.15;80.50
58668;BME280;59852;43.086;25.634;2022-11-23T04:52:55;97458.19;;;11.05;81.25
58668;BME280;59852;43.086;25.634;2022-11-23T04:55:20;97459.41;;;11.11;80.87
58668;BME280;59852;43.086;25.634;2022-11-23T04:57:45;97462.44;;;11.06;81.26
58668;BME280;59852;43.086;25.634;2022-11-23T05:00:11;97456.50;;;11.14;81.08
58668;BME280;59852;43.086;25.634;2022-11-23T05:02:37;97456.78;;;11.11;81.17
58668;BME280;59852;43.086;25.634;2022-11-23T05:05:02;97455.69;;;11.13;81.36
58668;BME280;59852;43.086;25.634;2022-11-23T05:07:27;97438.19;;;11.14;80.93
58668;BME280;59852;43.086;25.634;2022-11-23T05:09:53;97436.13;;;11.08;81.24
58668;BME280;59852;43.086;25.634;2022-11-23T05:12:18;97434.44;;;11.16;80.60
58668;BME280;59852;43.086;25.634;2022-11-23T05:14:43;97433.78;;;11.14;81.11
58668;BME280;59852;43.086;25.634;2022-11-23T05:17:09;97429.78;;;11.10;81.54
58668;BME280;59852;43.086;25.634;2022-11-23T05:19:34;97430.50;;;11.12;80.85
58668;BME280;59852;43.086;25.634;2022-11-23T05:21:59;97438.19;;;11.14;81.35
58668;BME280;59852;43.086;25.634;2022-11-23T05:24:25;97439.84;;;11.15;81.26
58668;BME280;59852;43.086;25.634;2022-11-23T05:26:50;97441.47;;;11.16;80.90
58668;BME280;59852;43.086;25.634;2022-11-23T05:29:15;97446.41;;;11.19;80.85
58668;BME280;59852;43.086;25.634;2022-11-23T05:31:41;97457.72;;;11.19;81.31
58668;BME280;59852;43.086;25.634;2022-11-23T05:34:06;97469.97;;;11.19;81.19
58668;BME280;59852;43.086;25.634;2022-11-23T05:36:31;97465.72;;;11.18;81.48
58668;BME280;59852;43.086;25.634;2022-11-23T05:38:57;97462.69;;;11.23;80.34
58668;BME280;59852;43.086;25.634;2022-11-23T05:41:22;97457.97;;;11.26;81.08
58668;BME280;59852;43.086;25.634;2022-11-23T05:43:47;97461.56;;;11.25;80.66
58668;BME280;59852;43.086;25.634;2022-11-23T05:46:13;97467.75;;;11.24;81.10
58668;BME280;59852;43.086;25.634;2022-11-23T05:48:38;97473.38;;;11.29;80.69
58668;BME280;59852;43.086;25.634;2022-11-23T05:51:03;97468.84;;;11.31;80.39
58668;BME280;59852;43.086;25.634;2022-11-23T05:53:29;97475.41;;;11.35;80.25
58668;BME280;59852;43.086;25.634;2022-11-23T05:55:57;97479.97;;;11.33;80.44
58668;BME280;59852;43.086;25.634;2022-11-23T05:58:23;97482.00;;;11.39;79.94
58668;BME280;59852;43.086;25.634;2022-11-23T06:00:48;97481.72;;;11.42;79.96
58668;BME280;59852;43.086;25.634;2022-11-23T06:03:13;97477.59;;;11.40;80.50
58668;BME280;59852;43.086;25.634;2022-11-23T06:05:38;97472.66;;;11.37;80.54
58668;BME280;59852;43.086;25.634;2022-11-23T06:08:04;97474.16;;;11.39;80.61
58668;BME280;59852;43.086;25.634;2022-11-23T06:10:29;97469.00;;;11.47;80.23
58668;BME280;59852;43.086;25.634;2022-11-23T06:13:00;97468.19;;;11.47;80.08
58668;BME280;59852;43.086;25.634;2022-11-23T06:15:25;97468.19;;;11.47;80.31
58668;BME280;59852;43.086;25.634;2022-11-23T06:17:50;97467.00;;;11.41;80.33
58668;BME280;59852;43.086;25.634;2022-11-23T06:20:16;97467.53;;;11.45;80.36
58668;BME280;59852;43.086;25.634;2022-11-23T06:22:41;97456.75;;;11.48;80.25
58668;BME280;59852;43.086;25.634;2022-11-23T06:25:07;97452.63;;;11.45;80.29
58668;BME280;59852;43.086;25.634;2022-11-23T06:27:32;97451.66;;;11.46;80.20
58668;BME280;59852;43.086;25.634;2022-11-23T06:29:57;97449.34;;;11.43;80.77
58668;BME280;59852;43.086;25.634;2022-11-23T06:32:23;97461.81;;;11.49;80.23
58668;BME280;59852;43.086;25.634;2022-11-23T06:34:48;97478.25;;;11.52;80.24
58668;BME280;59852;43.086;25.634;2022-11-23T06:37:13;97473.69;;;11.54;80.14
58668;BME280;59852;43.086;25.634;2022-11-23T06:39:39;97479.44;;;11.57;80.22
58668;BME280;59852;43.086;25.634;2022-11-23T06:42:04;97473.94;;;11.60;79.97
58668;BME280;59852;43.086;25.634;2022-11-23T06:44:30;97458.06;;;11.62;79.90
58668;BME280;59852;43.086;25.634;2022-11-23T06:46:55;97458.34;;;11.59;80.18
58668;BME280;59852;43.086;25.634;2022-11-23T06:49:20;97461.34;;;11.64;79.98
58668;BME280;59852;43.086;25.634;2022-11-23T06:51:46;97463.31;;;11.62;79.67
58668;BME280;59852;43.086;25.634;2022-11-23T06:54:11;97466.97;;;11.69;79.41
58668;BME280;59852;43.086;25.634;2022-11-23T06:56:36;97462.69;;;11.68;79.90
58668;BME280;59852;43.086;25.634;2022-11-23T06:59:02;97465.63;;;11.65;79.66
58668;BME280;59852;43.086;25.634;2022-11-23T07:01:27;97462.53;;;11.69;79.54
58668;BME280;59852;43.086;25.634;2022-11-23T07:03:53;97466.28;;;11.67;79.48
58668;BME280;59852;43.086;25.634;2022-11-23T07:06:18;97472.44;;;11.75;79.13
58668;BME280;59852;43.086;25.634;2022-11-23T07:08:43;97483.75;;;11.76;79.18
58668;BME280;59852;43.086;25.634;2022-11-23T07:11:10;97482.91;;;11.75;79.56
58668;BME280;59852;43.086;25.634;2022-11-23T07:13:36;97485.50;;;11.85;78.70
58668;BME280;59852;43.086;25.634;2022-11-23T07:16:01;97485.00;;;11.82;79.41
58668;BME280;59852;43.086;25.634;2022-11-23T07:18:27;97490.63;;;11.77;79.76
58668;BME280;59852;43.086;25.634;2022-11-23T07:20:52;97491.88;;;11.83;79.59
58668;BME280;59852;43.086;25.634;2022-11-23T07:23:18;97494.44;;;11.92;78.58
58668;BME280;59852;43.086;25.634;2022-11-23T07:25:43;97496.06;;;11.93;78.68
58668;BME280;59852;43.086;25.634;2022-11-23T07:28:09;97515.25;;;11.94;78.86
58668;BME280;59852;43.086;25.634;2022-11-23T07:30:35;97506.72;;;11.92;79.17
58668;BME280;59852;43.086;25.634;2022-11-23T07:33:02;97511.66;;;11.95;78.72
58668;BME280;59852;43.086;25.634;2022-11-23T07:35:27;97527.06;;;11.98;78.87
58668;BME280;59852;43.086;25.634;2022-11-23T07:37:53;97529.84;;;11.96;78.49
58668;BME280;59852;43.086;25.634;2022-11-23T07:40:18;97529.00;;;11.96;78.40
58668;BME280;59852;43.086;25.634;2022-11-23T07:42:44;97525.25;;;11.98;78.24
58668;BME280;59852;43.086;25.634;2022-11-23T07:45:09;97530.59;;;12.06;77.61
58668;BME280;59852;43.086;25.634;2022-11-23T07:47:35;97521.75;;;12.07;77.59
58668;BME280;59852;43.086;25.634;2022-11-23T07:50:00;97515.69;;;12.07;77.87
58668;BME280;59852;43.086;25.634;2022-11-23T07:52:26;97511.28;;;12.07;77.72
58668;BME280;59852;43.086;25.634;2022-11-23T07:54:51;97504.22;;;12.08;77.58
58668;BME280;59852;43.086;25.634;2022-11-23T07:57:16;97513.06;;;12.07;77.67
58668;BME280;59852;43.086;25.634;2022-11-23T07:59:42;97513.75;;;12.09;77.87
58668;BME280;59852;43.086;25.634;2022-11-23T08:02:11;97519.13;;;12.07;77.79
58668;BME280;59852;43.086;25.634;2022-11-23T08:04:38;97518.72;;;12.12;77.73
58668;BME280;59852;43.086;25.634;2022-11-23T08:07:03;97512.91;;;12.09;77.59
58668;BME280;59852;43.086;25.634;2022-11-23T08:09:28;97507.00;;;12.06;77.89
58668;BME280;59852;43.086;25.634;2022-11-23T08:11:54;97510.44;;;12.07;78.52
58668;BME280;59852;43.086;25.634;2022-11-23T08:14:19;97503.72;;;12.04;79.54
58668;BME280;59852;43.086;25.634;2022-11-23T08:16:47;97520.56;;;12.02;79.78
58668;BME280;59852;43.086;25.634;2022-11-23T08:19:13;97529.16;;;11.94;80.62
58668;BME280;59852;43.086;25.634;2022-11-23T08:21:39;97530.66;;;11.97;81.04
58668;BME280;59852;43.086;25.634;2022-11-23T08:24:04;97532.09;;;11.91;81.11
58668;BME280;59852;43.086;25.634;2022-11-23T08:26:30;97535.59;;;11.82;80.67
58668;BME280;59852;43.086;25.634;2022-11-23T08:28:55;97529.06;;;11.86;80.83
58668;BME280;59852;43.086;25.634;2022-11-23T08:31:21;97525.72;;;11.94;80.53
58668;BME280;59852;43.086;25.634;2022-11-23T08:33:47;97527.44;;;11.85;80.70
58668;BME280;59852;43.086;25.634;2022-11-23T08:36:12;97523.94;;;11.94;80.45
58668;BME280;59852;43.086;25.634;2022-11-23T08:38:37;97522.19;;;11.85;81.15
58668;BME280;59852;43.086;25.634;2022-11-23T08:41:03;97521.88;;;11.88;79.85
58668;BME280;59852;43.086;25.634;2022-11-23T08:43:29;97518.53;;;11.96;79.79
58668;BME280;59852;43.086;25.634;2022-11-23T08:45:58;97516.97;;;12.03;79.24
58668;BME280;59852;43.086;25.634;2022-11-23T08:48:24;97517.22;;;12.10;78.39
58668;BME280;59852;43.086;25.634;2022-11-23T08:50:50;97525.91;;;12.10;77.73
58668;BME280;59852;43.086;25.634;2022-11-23T08:53:15;97532.34;;;12.16;77.88
58668;BME280;59852;43.086;25.634;2022-11-23T08:55:41;97523.22;;;12.20;77.83
58668;BME280;59852;43.086;25.634;2022-11-23T08:58:06;97515.84;;;12.05;76.94
58668;BME280;59852;43.086;25.634;2022-11-23T09:00:33;97508.66;;;12.07;76.43
58668;BME280;59852;43.086;25.634;2022-11-23T09:02:58;97495.84;;;12.04;75.99
58668;BME280;59852;43.086;25.634;2022-11-23T09:05:24;97500.28;;;12.04;75.18
58668;BME280;59852;43.086;25.634;2022-11-23T09:07:50;97507.31;;;12.03;75.49
58668;BME280;59852;43.086;25.634;2022-11-23T09:10:15;97512.94;;;11.91;74.74
58668;BME280;59852;43.086;25.634;2022-11-23T09:12:41;97519.56;;;11.85;75.12
58668;BME280;59852;43.086;25.634;2022-11-23T09:15:07;97527.00;;;11.90;75.01
58668;BME280;59852;43.086;25.634;2022-11-23T09:17:32;97519.97;;;11.90;74.91
58668;BME280;59852;43.086;25.634;2022-11-23T09:19:58;97531.22;;;12.00;74.42
58668;BME280;59852;43.086;25.634;2022-11-23T09:22:23;97524.44;;;11.98;74.04
58668;BME280;59852;43.086;25.634;2022-11-23T09:24:48;97523.13;;;12.12;74.77
58668;BME280;59852;43.086;25.634;2022-11-23T09:27:14;97526.03;;;12.09;74.28
58668;BME280;59852;43.086;25.634;2022-11-23T09:29:39;97522.25;;;12.21;74.23
58668;BME280;59852;43.086;25.634;2022-11-23T09:32:04;97526.88;;;12.27;74.13
58668;BME280;59852;43.086;25.634;2022-11-23T09:34:30;97518.41;;;12.33;74.19
58668;BME280;59852;43.086;25.634;2022-11-23T09:36:55;97509.25;;;12.37;74.02
58668;BME280;59852;43.086;25.634;2022-11-23T09:39:21;97511.13;;;12.45;73.66
58668;BME280;59852;43.086;25.634;2022-11-23T09:52:18;97472.09;;;12.42;74.44
58668;BME280;59852;43.086;25.634;2022-11-23T09:54:46;97470.75;;;12.38;74.41
58668;BME280;59852;43.086;25.634;2022-11-23T09:57:13;97468.75;;;12.31;73.70
58668;BME280;59852;43.086;25.634;2022-11-23T09:59:41;97482.69;;;12.32;73.47
58668;BME280;59852;43.086;25.634;2022-11-23T10:02:16;97486.13;;;12.32;72.73
58668;BME280;59852;43.086;25.634;2022-11-23T10:04:44;97490.78;;;12.21;73.13
58668;BME280;59852;43.086;25.634;2022-11-23T10:15:16;97485.00;;;12.17;72.87
58668;BME280;59852;43.086;25.634;2022-11-23T10:20:29;97475.06;;;12.21;72.95
58668;BME280;59852;43.086;25.634;2022-11-23T10:23:00;97470.47;;;12.23;73.18
58668;BME280;59852;43.086;25.634;2022-11-23T10:25:31;97470.56;;;12.31;73.56
58668;BME280;59852;43.086;25.634;2022-11-23T10:27:59;97470.84;;;12.28;74.33
58668;BME280;59852;43.086;25.634;2022-11-23T10:30:25;97468.34;;;12.44;74.03
58668;BME280;59852;43.086;25.634;2022-11-23T10:33:00;97474.41;;;12.45;73.72
58668;BME280;59852;43.086;25.634;2022-11-23T10:35:30;97469.41;;;12.51;73.27
58668;BME280;59852;43.086;25.634;2022-11-23T10:40:33;97479.16;;;12.41;73.16
58668;BME280;59852;43.086;25.634;2022-11-23T10:43:00;97471.88;;;12.35;73.28
58668;BME280;59852;43.086;25.634;2022-11-23T10:45:27;97471.81;;;12.45;73.03
58668;BME280;59852;43.086;25.634;2022-11-23T10:47:56;97466.03;;;12.41;73.33
58668;BME280;59852;43.086;25.634;2022-11-23T10:52:51;97455.66;;;12.57;73.06
58668;BME280;59852;43.086;25.634;2022-11-23T10:55:17;97449.31;;;12.60;72.99
58668;BME280;59852;43.086;25.634;2022-11-23T10:57:44;97451.78;;;12.61;73.84
58668;BME280;59852;43.086;25.634;2022-11-23T11:07:36;97462.97;;;12.28;73.51
58668;BME280;59852;43.086;25.634;2022-11-23T11:10:02;97475.88;;;12.21;73.06
58668;BME280;59852;43.086;25.634;2022-11-23T11:12:28;97474.66;;;12.16;73.21
58668;BME280;59852;43.086;25.634;2022-11-23T11:14:58;97469.72;;;12.13;73.25
58668;BME280;59852;43.086;25.634;2022-11-23T11:17:28;97469.25;;;12.17;72.75
58668;BME280;59852;43.086;25.634;2022-11-23T11:19:54;97474.97;;;12.13;72.89
58668;BME280;59852;43.086;25.634;2022-11-23T11:24:50;97479.63;;;12.01;72.84
58668;BME280;59852;43.086;25.634;2022-11-23T11:27:16;97474.22;;;11.85;72.95
58668;BME280;59852;43.086;25.634;2022-11-23T11:37:31;97474.75;;;12.06;72.54
58668;BME280;59852;43.086;25.634;2022-11-23T11:42:42;97478.09;;;12.16;72.87
58668;BME280;59852;43.086;25.634;2022-11-23T11:45:15;97484.25;;;12.25;72.56
58668;BME280;59852;43.086;25.634;2022-11-23T11:50:26;97488.22;;;12.29;72.89
58668;BME280;59852;43.086;25.634;2022-11-23T11:52:55;97484.09;;;12.09;72.47
58668;BME280;59852;43.086;25.634;2022-11-23T11:55:33;97488.59;;;12.16;72.83
58668;BME280;59852;43.086;25.634;2022-11-23T11:58:01;97488.50;;;12.08;72.61
58668;BME280;59852;43.086;25.634;2022-11-23T12:00:28;97493.69;;;12.00;73.23
58668;BME280;59852;43.086;25.634;2022-11-23T12:03:05;97492.09;;;11.89;72.77
58668;BME280;59852;43.086;25.634;2022-11-23T12:12:53;97506.63;;;11.46;74.39
58668;BME280;59852;43.086;25.634;2022-11-23T12:15:21;97496.47;;;11.43;74.71
58668;BME280;59852;43.086;25.634;2022-11-23T12:42:16;97498.25;;;11.98;73.78
58668;BME280;59852;43.086;25.634;2022-11-23T12:46:50;97502.66;;;11.97;73.85
58668;BME280;59852;43.086;25.634;2022-11-23T12:51:59;97496.59;;;12.15;73.38
58668;BME280;59852;43.086;25.634;2022-11-23T12:54:36;97498.94;;;12.18;73.33
58668;BME280;59852;43.086;25.634;2022-11-23T13:02:10;97497.50;;;12.05;73.84
58668;BME280;59852;43.086;25.634;2022-11-23T13:12:11;97507.50;;;12.20;73.83
58668;BME280;59852;43.086;25.634;2022-11-23T13:22:23;97513.25;;;12.23;73.75
58668;BME280;59852;43.086;25.634;2022-11-23T13:30:08;97508.34;;;12.28;73.89
58668;BME280;59852;43.086;25.634;2022-11-23T13:42:46;97513.59;;;11.93;74.74
58668;BME280;59852;43.086;25.634;2022-11-23T13:45:14;97524.44;;;11.98;74.62
58668;BME280;59852;43.086;25.634;2022-11-23T13:47:49;97527.13;;;11.88;74.67
58668;BME280;59852;43.086;25.634;2022-11-23T13:50:26;97528.13;;;11.50;75.24
58668;BME280;59852;43.086;25.634;2022-11-23T13:52:52;97528.50;;;11.55;75.28
58668;BME280;59852;43.086;25.634;2022-11-23T13:55:19;97533.00;;;11.35;75.90
58668;BME280;59852;43.086;25.634;2022-11-23T13:57:45;97533.97;;;11.34;76.39
58668;BME280;59852;43.086;25.634;2022-11-23T14:05:58;97543.84;;;11.13;77.46
58668;BME280;59852;43.086;25.634;2022-11-23T14:08:25;97537.94;;;11.01;78.24
58668;BME280;59852;43.086;25.634;2022-11-23T14:10:51;97535.88;;;11.05;77.77
58668;BME280;59852;43.086;25.634;2022-11-23T14:13:18;97535.00;;;11.14;78.09
58668;BME280;59852;43.086;25.634;2022-11-23T14:15:50;97529.22;;;11.10;77.73
58668;BME280;59852;43.086;25.634;2022-11-23T14:31:18;97538.72;;;11.21;77.97
58668;BME280;59852;43.086;25.634;2022-11-23T14:36:05;97536.75;;;11.33;77.05
58668;BME280;59852;43.086;25.634;2022-11-23T14:41:16;97540.34;;;11.32;77.32
58668;BME280;59852;43.086;25.634;2022-11-23T14:43:43;97534.53;;;11.28;77.06
58668;BME280;59852;43.086;25.634;2022-11-23T14:46:17;97541.03;;;11.24;78.11
58668;BME280;59852;43.086;25.634;2022-11-23T14:48:43;97535.25;;;11.20;78.25
58668;BME280;59852;43.086;25.634;2022-11-23T14:53:42;97549.91;;;11.04;79.00
58668;BME280;59852;43.086;25.634;2022-11-23T14:56:30;97550.72;;;11.14;78.50
58668;BME280;59852;43.086;25.634;2022-11-23T14:58:58;97560.41;;;10.84;79.33
58668;BME280;59852;43.086;25.634;2022-11-23T15:01:25;97565.91;;;10.91;79.16
58668;BME280;59852;43.086;25.634;2022-11-23T15:03:55;97575.53;;;10.90;78.78
58668;BME280;59852;43.086;25.634;2022-11-23T15:06:22;97571.69;;;10.85;79.31
58668;BME280;59852;43.086;25.634;2022-11-23T15:08:53;97583.66;;;10.87;79.41
58668;BME280;59852;43.086;25.634;2022-11-23T15:11:22;97588.09;;;10.77;79.50
58668;BME280;59852;43.086;25.634;2022-11-23T15:13:50;97588.91;;;10.87;79.89
58668;BME280;59852;43.086;25.634;2022-11-23T15:16:17;97584.50;;;10.78;80.08
58668;BME280;59852;43.086;25.634;2022-11-23T15:18:42;97583.81;;;10.76;79.69